createdAt,value
2018-10-11T14:13:58.650Z,63.05
2018-10-11T14:14:58.497Z,63.43
2018-10-11T14:15:58.531Z,63.15
2018-10-11T14:16:58.780Z,62.57
2018-10-11T14:18:11.913Z,62.86
2018-10-11T14:19:03.110Z,61.89
2018-10-11T14:20:03.937Z,62.37
2018-10-11T14:21:03.960Z,61.89
2018-10-11T14:22:04.140Z,61.8
2018-10-11T14:23:04.618Z,61.51
2018-10-11T14:24:04.729Z,61.99
2018-10-11T14:25:04.737Z,60.54
2018-10-11T14:26:04.717Z,58.03
2018-10-11T14:27:05.141Z,57.54
2018-10-11T14:28:05.323Z,57.45
2018-10-11T14:29:05.496Z,58.06
2018-10-11T14:30:05.933Z,58.06
2018-10-11T14:31:05.956Z,57.87
2018-10-11T14:32:06.013Z,57.09
2018-10-11T14:33:06.340Z,55.74
2018-10-11T14:34:06.622Z,55.55
2018-10-11T14:35:06.618Z,56.03
2018-10-11T14:36:06.684Z,54.97
2018-10-11T14:37:07.161Z,55.55
2018-10-11T14:38:06.694Z,55.16
2018-10-11T14:39:06.469Z,55.83
2018-10-11T14:40:07.201Z,54.87
2018-10-11T14:41:06.976Z,54.77
2018-10-11T14:42:07.404Z,54.1
2018-10-11T14:43:06.752Z,53.81
2018-10-11T14:44:07.360Z,53.23
2018-10-11T14:45:07.451Z,53.23
2018-10-11T14:46:07.434Z,54.29
2018-10-11T14:47:07.465Z,53.61
2018-10-11T14:48:07.218Z,53.23
2018-10-11T14:49:07.554Z,53.61
2018-10-11T14:50:07.851Z,53.61
2018-10-11T14:51:08.280Z,53.81
2018-10-11T14:52:08.199Z,54
2018-10-11T14:53:08.522Z,54.1
2018-10-11T14:54:08.266Z,54.39
2018-10-11T14:55:08.786Z,54.19
2018-10-11T14:56:09.113Z,54.29
2018-10-11T14:57:09.230Z,54
2018-10-11T14:58:08.894Z,53.61
2018-10-11T14:59:08.955Z,53.81
2018-10-11T15:00:28.953Z,54.1
2018-10-11T15:01:28.985Z,53.71
2018-10-11T15:02:29.056Z,53.81
2018-10-11T15:03:29.269Z,53.81
2018-10-11T15:04:29.189Z,53.71
2018-10-11T15:05:29.883Z,54.77
2018-10-11T15:06:29.919Z,54.49
2018-10-11T15:07:29.864Z,54.97
2018-10-11T15:08:29.899Z,54.39
2018-10-11T15:09:29.926Z,54.29
2018-10-11T15:10:30.131Z,54.97
2018-10-11T15:11:29.864Z,55.07
2018-10-11T15:12:30.307Z,54.97
2018-10-11T15:13:30.376Z,55.23
2018-10-11T15:14:30.384Z,55.45
2018-10-11T15:15:30.849Z,56.58
2018-10-11T15:16:31.012Z,55.42
2018-10-11T15:17:31.185Z,55.62
2018-10-11T15:18:31.223Z,55.42
2018-10-11T15:19:31.564Z,54.94
2018-10-11T15:20:32.003Z,56
2018-10-11T15:21:31.760Z,56.87
2018-10-11T15:22:32.195Z,56.87
2018-10-11T15:23:32.373Z,57.16
2018-10-11T15:24:32.599Z,55.81
2018-10-11T15:25:33.045Z,55.42
2018-10-11T15:26:33.499Z,55.62
2018-10-11T15:27:33.244Z,55.9
2018-10-11T15:28:33.962Z,55.9
2018-10-11T15:29:33.904Z,55.81
2018-10-11T15:30:34.449Z,57.26
2018-10-11T15:31:34.722Z,55.81
2018-10-11T15:32:34.266Z,56.1
2018-10-11T15:33:34.706Z,56.58
2018-10-11T15:34:34.886Z,56.48
2018-10-11T15:35:34.923Z,56.87
2018-10-11T15:36:34.958Z,56.07
2018-10-11T15:37:35.022Z,56.87
2018-10-11T15:38:35.473Z,56.26
2018-10-11T15:39:35.914Z,56.26
2018-10-11T15:40:36.396Z,56.26
2018-10-11T15:41:36.433Z,56.36
2018-10-11T15:42:36.602Z,56.74
2018-10-11T15:43:36.512Z,58
2018-10-11T15:44:36.279Z,58.29
2018-10-11T15:45:36.486Z,57.9
2018-10-11T15:46:36.773Z,56.84
2018-10-11T15:47:37.055Z,57.32
2018-10-11T15:48:37.099Z,56.94
2018-10-11T15:49:37.558Z,57.32
2018-10-11T15:50:38.022Z,57.42
2018-10-11T15:51:37.782Z,58.65
2018-10-11T15:52:38.657Z,58.45
2018-10-11T15:53:38.130Z,57.29
2018-10-11T15:54:38.438Z,57.39
2018-10-11T15:55:38.878Z,57.29
2018-10-11T15:56:38.933Z,58.17
2018-10-11T15:57:38.952Z,58.65
2018-10-11T15:58:39.510Z,58.84
2018-10-11T15:59:39.323Z,59.23
2018-10-11T16:00:39.991Z,58.84
2018-10-11T16:01:39.978Z,58.84
2018-10-11T16:02:41.041Z,59.1
2018-10-11T16:03:39.854Z,58.72
2018-10-11T16:04:41.203Z,59.48
2018-10-11T16:05:43.784Z,60.35
2018-10-11T16:06:44.675Z,60.26
2018-10-11T16:07:46.456Z,60.26
2018-10-11T16:08:45.909Z,59.2
2018-10-11T16:09:43.050Z,60.16
2018-10-11T16:10:43.431Z,59.48
2018-10-11T16:11:42.720Z,59.2
2018-10-11T16:12:44.286Z,59.3
2018-10-11T16:13:43.045Z,60.26
